Time,TemperatureF,DewpointF,PressureIn,WindDirection,WindDirectionDegrees,WindSpeedMPH,WindSpeedGustMPH,Humidity,HourlyPrecipIn,Conditions,Clouds,dailyrainin,SoftwareType,DateUTC
2013-05-04 00:02:00,44.0,30.0,30.06,SE,143,3.0,3.0,58,0.00,,,0.00,,2013-05-04 05:02:00,
2013-05-04 00:11:00,45.0,31.0,30.06,South,187,5.0,5.0,57,0.00,,,0.00,,2013-05-04 05:11:00,
2013-05-04 00:22:00,45.0,31.0,30.06,South,187,5.0,5.0,57,0.00,,,0.00,,2013-05-04 05:22:00,
2013-05-04 00:32:00,46.0,31.0,30.05,SSW,205,3.0,4.0,55,0.00,,,0.00,,2013-05-04 05:32:00,
2013-05-04 00:42:00,46.0,31.0,30.05,SSW,205,3.0,4.0,55,0.00,,,0.00,,2013-05-04 05:42:00,
2013-05-04 00:52:00,46.0,31.0,30.05,SW,225,3.0,5.0,55,0.00,,,0.00,,2013-05-04 05:52:00,
2013-05-04 01:01:00,46.0,31.0,30.04,SW,221,4.0,6.0,55,0.00,,,0.00,,2013-05-04 06:01:00,
2013-05-04 01:11:00,47.0,31.0,30.04,SW,215,3.0,5.0,54,0.00,,,0.00,,2013-05-04 06:11:00,
2013-05-04 01:21:00,47.0,31.0,30.04,SW,215,3.0,5.0,54,0.00,,,0.00,,2013-05-04 06:21:00,
2013-05-04 01:32:00,47.0,31.0,30.03,South,191,5.0,5.0,54,0.00,,,0.00,,2013-05-04 06:32:00,
2013-05-04 01:42:00,47.0,31.0,30.03,South,191,5.0,5.0,54,0.00,,,0.00,,2013-05-04 06:42:00,
2013-05-04 01:52:00,46.0,31.0,30.03,SSE,148,4.0,4.0,55,0.00,,,0.00,,2013-05-04 06:52:00,
2013-05-04 02:01:00,45.0,31.0,30.02,SSE,160,3.0,3.0,57,0.00,,,0.00,,2013-05-04 07:01:00,
2013-05-04 02:11:00,45.0,31.0,30.02,SSE,160,3.0,3.0,57,0.00,,,0.00,,2013-05-04 07:11:00,
2013-05-04 02:21:00,44.0,30.0,30.02,South,180,2.0,2.0,58,0.00,,,0.00,,2013-05-04 07:21:00,
2013-05-04 02:32:00,43.0,30.0,30.01,South,172,0.0,0.0,60,0.00,,,0.00,,2013-05-04 07:32:00,
2013-05-04 02:42:00,43.0,30.0,30.01,South,172,0.0,0.0,60,0.00,,,0.00,,2013-05-04 07:42:00,
2013-05-04 02:52:00,39.0,29.0,30.01,South,172,0.0,0.0,68,0.00,,,0.00,,2013-05-04 07:52:00,
2013-05-04 03:01:00,39.0,29.0,30.01,South,172,0.0,0.0,68,0.00,,,0.00,,2013-05-04 08:01:00,
2013-05-04 03:11:00,39.0,29.0,30.01,South,172,0.0,0.0,68,0.00,,,0.00,,2013-05-04 08:11:00,
2013-05-04 03:21:00,38.0,29.0,30.01,South,172,0.0,0.0,71,0.00,,,0.00,,2013-05-04 08:21:00,
2013-05-04 03:31:00,37.0,29.0,30.01,South,172,0.0,0.0,74,0.00,,,0.00,,2013-05-04 08:31:00,
2013-05-04 03:41:00,37.0,29.0,30.01,South,172,0.0,0.0,74,0.00,,,0.00,,2013-05-04 08:41:00,
2013-05-04 03:52:00,36.0,29.0,30.01,South,172,0.0,0.0,77,0.00,,,0.00,,2013-05-04 08:52:00,
2013-05-04 04:02:00,35.0,29.0,30.00,South,172,0.0,0.0,77,0.00,,,0.00,,2013-05-04 09:02:00,
2013-05-04 04:11:00,35.0,29.0,30.00,South,172,0.0,0.0,77,0.00,,,0.00,,2013-05-04 09:11:00,
2013-05-04 04:21:00,35.0,28.0,30.01,South,172,0.0,0.0,76,0.00,,,0.00,,2013-05-04 09:21:00,
2013-05-04 04:32:00,35.0,29.0,30.00,South,172,0.0,0.0,77,0.00,,,0.00,,2013-05-04 09:32:00,
2013-05-04 04:42:00,35.0,29.0,30.00,South,172,0.0,0.0,77,0.00,,,0.00,,2013-05-04 09:42:00,
2013-05-04 04:52:00,35.0,29.0,30.01,South,172,0.0,0.0,78,0.00,,,0.00,,2013-05-04 09:52:00,
2013-05-04 05:02:00,35.0,29.0,30.01,South,172,0.0,0.0,79,0.00,,,0.00,,2013-05-04 10:02:00,
2013-05-04 05:12:00,35.0,29.0,30.01,South,172,0.0,0.0,79,0.00,,,0.00,,2013-05-04 10:12:00,
2013-05-04 05:22:00,35.0,29.0,30.01,South,172,0.0,0.0,79,0.00,,,0.00,,2013-05-04 10:22:00,
2013-05-04 05:33:00,35.0,29.0,30.01,South,172,0.0,0.0,80,0.00,,,0.00,,2013-05-04 10:33:00,
2013-05-04 05:42:00,35.0,29.0,30.01,South,172,0.0,0.0,80,0.00,,,0.00,,2013-05-04 10:42:00,
2013-05-04 05:53:00,35.0,30.0,30.01,South,172,0.0,0.0,81,0.00,,,0.00,,2013-05-04 10:53:00,
2013-05-04 06:02:00,35.0,29.0,30.02,South,172,0.0,0.0,80,0.00,,,0.00,,2013-05-04 11:02:00,
2013-05-04 06:11:00,35.0,29.0,30.02,South,172,0.0,0.0,80,0.00,,,0.00,,2013-05-04 11:11:00,
2013-05-04 06:21:00,35.0,29.0,30.02,WSW,249,0.0,0.0,80,0.00,,,0.00,,2013-05-04 11:21:00,
2013-05-04 06:32:00,35.0,29.0,30.02,WSW,249,0.0,0.0,80,0.00,,,0.00,,2013-05-04 11:32:00,
2013-05-04 06:42:00,35.0,29.0,30.02,WSW,249,0.0,0.0,80,0.00,,,0.00,,2013-05-04 11:42:00,
2013-05-04 07:01:00,35.0,29.0,30.03,WSW,249,0.0,0.0,80,0.00,,,0.00,,2013-05-04 12:01:00,
2013-05-04 07:13:00,35.0,29.0,30.03,SW,233,1.0,0.0,78,0.00,,,0.00,,2013-05-04 12:13:00,
2013-05-04 07:27:00,36.0,30.0,30.03,SSW,204,2.0,0.0,78,0.00,,,0.00,,2013-05-04 12:27:00,
2013-05-04 07:42:00,40.0,32.0,30.04,SSW,204,0.0,0.0,74,0.00,,,0.00,,2013-05-04 12:42:00,
2013-05-04 07:52:00,48.0,36.0,30.04,SSW,204,0.0,0.0,64,0.00,,,0.00,,2013-05-04 12:52:00,
2013-05-04 08:01:00,54.0,39.0,30.05,South,170,0.0,2.0,56,0.00,,,0.00,,2013-05-04 13:01:00,
2013-05-04 08:11:00,54.0,39.0,30.05,South,170,0.0,2.0,56,0.00,,,0.00,,2013-05-04 13:11:00,
2013-05-04 08:21:00,51.0,34.0,30.07,North,353,4.0,4.0,53,0.00,,,0.00,,2013-05-04 13:21:00,
2013-05-04 08:41:00,51.0,34.0,30.07,North,359,5.0,5.0,53,0.00,,,0.00,,2013-05-04 13:41:00,
2013-05-04 08:52:00,55.0,36.0,30.07,North,353,4.0,4.0,48,0.00,,,0.00,,2013-05-04 13:52:00,
2013-05-04 09:02:00,59.0,37.0,30.07,NW,318,4.0,0.0,43,0.00,,,0.00,,2013-05-04 14:02:00,
2013-05-04 09:11:00,59.0,37.0,30.07,NW,318,4.0,0.0,43,0.00,,,0.00,,2013-05-04 14:11:00,
2013-05-04 09:21:00,61.0,35.0,30.07,NNW,329,7.0,7.0,38,0.00,,,0.00,,2013-05-04 14:21:00,
2013-05-04 09:32:00,62.0,35.0,30.07,NNW,340,7.0,7.0,36,0.00,,,0.00,,2013-05-04 14:32:00,
2013-05-04 09:42:00,62.0,35.0,30.07,NNW,340,7.0,7.0,36,0.00,,,0.00,,2013-05-04 14:42:00,
2013-05-04 09:52:00,63.0,35.0,30.07,NNW,342,4.0,6.0,35,0.00,,,0.00,,2013-05-04 14:52:00,
2013-05-04 10:02:00,66.0,36.0,30.06,NNW,340,3.0,5.0,33,0.00,,,0.00,,2013-05-04 15:02:00,
2013-05-04 10:11:00,66.0,36.0,30.06,NNW,340,3.0,5.0,33,0.00,,,0.00,,2013-05-04 15:11:00,
2013-05-04 10:22:00,68.0,36.0,30.06,NNW,329,4.0,6.0,31,0.00,,,0.00,,2013-05-04 15:22:00,
2013-05-04 10:33:00,69.0,35.0,30.06,NNW,332,1.0,3.0,29,0.00,,,0.00,,2013-05-04 15:33:00,
2013-05-04 10:43:00,69.0,35.0,30.06,NNW,332,1.0,3.0,29,0.00,,,0.00,,2013-05-04 15:43:00,
2013-05-04 10:53:00,72.0,37.0,30.05,West,264,3.0,0.0,28,0.00,,,0.00,,2013-05-04 15:53:00,
2013-05-04 11:03:00,72.0,35.0,30.05,West,266,0.0,0.0,26,0.00,,,0.00,,2013-05-04 16:03:00,
2013-05-04 11:12:00,72.0,35.0,30.05,West,266,0.0,0.0,26,0.00,,,0.00,,2013-05-04 16:12:00,
2013-05-04 11:22:00,74.0,36.0,30.04,West,271,1.0,4.0,25,0.00,,,0.00,,2013-05-04 16:22:00,
2013-05-04 11:33:00,74.0,36.0,30.03,West,274,3.0,3.0,25,0.00,,,0.00,,2013-05-04 16:33:00,
2013-05-04 11:42:00,74.0,36.0,30.03,West,274,3.0,3.0,25,0.00,,,0.00,,2013-05-04 16:42:00,
2013-05-04 11:52:00,76.0,38.0,30.03,WSW,240,1.0,5.0,25,0.00,,,0.00,,2013-05-04 16:52:00,
2013-05-04 12:02:00,78.0,36.0,30.02,West,274,3.0,7.0,22,0.00,,,0.00,,2013-05-04 17:02:00,
2013-05-04 12:12:00,78.0,36.0,30.02,West,274,3.0,7.0,22,0.00,,,0.00,,2013-05-04 17:12:00,
2013-05-04 12:22:00,78.0,35.0,30.02,NW,309,0.0,4.0,21,0.00,,,0.00,,2013-05-04 17:22:00,
2013-05-04 12:32:00,78.0,34.0,30.01,NW,315,3.0,0.0,20,0.00,,,0.00,,2013-05-04 17:32:00,
2013-05-04 12:42:00,78.0,34.0,30.01,NW,315,3.0,0.0,20,0.00,,,0.00,,2013-05-04 17:42:00,
2013-05-04 12:52:00,78.0,34.0,30.00,NW,325,2.0,7.0,20,0.00,,,0.00,,2013-05-04 17:52:00,
2013-05-04 13:01:00,79.0,36.0,29.99,SE,139,2.0,2.0,21,0.00,,,0.00,,2013-05-04 18:01:00,
2013-05-04 13:12:00,79.0,36.0,29.99,SE,139,2.0,2.0,21,0.00,,,0.00,,2013-05-04 18:12:00,
2013-05-04 13:21:00,82.0,33.0,29.98,ENE,66,6.0,6.0,17,0.00,,,0.00,,2013-05-04 18:21:00,
2013-05-04 13:32:00,80.0,33.0,29.98,WSW,239,0.0,1.0,18,0.00,,,0.00,,2013-05-04 18:32:00,
2013-05-04 13:42:00,80.0,33.0,29.98,WSW,239,0.0,1.0,18,0.00,,,0.00,,2013-05-04 18:42:00,
2013-05-04 13:52:00,80.0,34.0,29.97,NW,307,6.0,9.0,19,0.00,,,0.00,,2013-05-04 18:52:00,
2013-05-04 14:01:00,83.0,34.0,29.97,South,183,2.0,2.0,17,0.00,,,0.00,,2013-05-04 19:01:00,
2013-05-04 14:11:00,83.0,34.0,29.97,South,183,2.0,2.0,17,0.00,,,0.00,,2013-05-04 19:11:00,
2013-05-04 14:21:00,89.0,35.0,29.96,West,274,4.0,5.0,15,0.00,,,0.00,,2013-05-04 19:21:00,
2013-05-04 14:32:00,90.0,34.0,29.96,West,270,0.0,0.0,14,0.00,,,0.00,,2013-05-04 19:32:00,
2013-05-04 14:42:00,90.0,34.0,29.96,West,270,0.0,0.0,14,0.00,,,0.00,,2013-05-04 19:42:00,
2013-05-04 14:52:00,84.0,31.0,29.95,NNE,17,6.0,7.0,15,0.00,,,0.00,,2013-05-04 19:52:00,
2013-05-04 15:02:00,86.0,31.0,29.93,NNW,328,9.0,11.0,14,0.00,,,0.00,,2013-05-04 20:02:00,
2013-05-04 15:11:00,86.0,31.0,29.93,NNW,328,9.0,11.0,14,0.00,,,0.00,,2013-05-04 20:11:00,
2013-05-04 15:22:00,86.0,35.0,29.93,SE,132,2.0,0.0,16,0.00,,,0.00,,2013-05-04 20:22:00,
2013-05-04 15:32:00,93.0,35.0,29.92,SE,124,1.0,0.0,13,0.00,,,0.00,,2013-05-04 20:32:00,
2013-05-04 15:42:00,93.0,35.0,29.92,SE,124,1.0,0.0,13,0.00,,,0.00,,2013-05-04 20:42:00,
2013-05-04 15:52:00,91.0,29.0,29.91,NE,53,4.0,5.0,11,0.00,,,0.00,,2013-05-04 20:52:00,
2013-05-04 16:02:00,81.0,29.0,29.91,NNW,328,7.0,7.0,15,0.00,,,0.00,,2013-05-04 21:02:00,
2013-05-04 16:11:00,81.0,29.0,29.91,NNW,328,7.0,7.0,15,0.00,,,0.00,,2013-05-04 21:11:00,
2013-05-04 16:22:00,82.0,31.0,29.90,NNE,28,2.0,3.0,16,0.00,,,0.00,,2013-05-04 21:22:00,
2013-05-04 16:33:00,83.0,31.0,29.89,NNW,340,0.0,0.0,15,0.00,,,0.00,,2013-05-04 21:33:00,
2013-05-04 16:43:00,83.0,31.0,29.89,NNW,340,0.0,0.0,15,0.00,,,0.00,,2013-05-04 21:43:00,
2013-05-04 16:53:00,86.0,35.0,29.88,WSW,249,2.0,4.0,16,0.00,,,0.00,,2013-05-04 21:53:00,
2013-05-04 17:03:00,91.0,35.0,29.88,WSW,245,3.0,3.0,14,0.00,,,0.00,,2013-05-04 22:03:00,
2013-05-04 17:12:00,91.0,35.0,29.88,WSW,245,3.0,3.0,14,0.00,,,0.00,,2013-05-04 22:12:00,
2013-05-04 17:22:00,88.0,31.0,29.88,NW,318,1.0,4.0,13,0.00,,,0.00,,2013-05-04 22:22:00,
2013-05-04 17:33:00,85.0,30.0,29.88,ENE,59,2.0,7.0,14,0.00,,,0.00,,2013-05-04 22:33:00,
2013-05-04 17:42:00,83.0,32.0,29.88,ESE,113,0.0,0.0,16,0.00,,,0.00,,2013-05-04 22:42:00,
2013-05-04 17:52:00,83.0,32.0,29.88,ESE,113,0.0,0.0,16,0.00,,,0.00,,2013-05-04 22:52:00,
2013-05-04 18:02:00,86.0,31.0,29.88,North,7,0.0,0.0,14,0.00,,,0.00,,2013-05-04 23:02:00,
2013-05-04 18:11:00,86.0,31.0,29.88,North,7,0.0,0.0,14,0.00,,,0.00,,2013-05-04 23:11:00,
2013-05-04 18:21:00,84.0,31.0,29.88,NE,56,4.0,11.0,15,0.00,,,0.00,,2013-05-04 23:21:00,
2013-05-04 18:32:00,84.0,31.0,29.87,ESE,113,0.0,0.0,15,0.00,,,0.00,,2013-05-04 23:32:00,
2013-05-04 18:42:00,84.0,31.0,29.87,ESE,113,0.0,0.0,15,0.00,,,0.00,,2013-05-04 23:42:00,
2013-05-04 18:52:00,81.0,29.0,29.88,NNE,30,5.0,8.0,15,0.00,,,0.00,,2013-05-04 23:52:00,
2013-05-04 19:01:00,78.0,31.0,29.88,North,352,0.0,0.0,18,0.00,,,0.00,,2013-05-05 00:01:00,
2013-05-04 19:11:00,78.0,31.0,29.88,North,352,0.0,0.0,18,0.00,,,0.00,,2013-05-05 00:11:00,
2013-05-04 19:21:00,78.0,31.0,29.88,North,352,0.0,0.0,18,0.00,,,0.00,,2013-05-05 00:21:00,
2013-05-04 19:31:00,76.0,33.0,29.88,North,352,0.0,0.0,21,0.00,,,0.00,,2013-05-05 00:31:00,
2013-05-04 19:42:00,76.0,33.0,29.88,North,352,0.0,0.0,21,0.00,,,0.00,,2013-05-05 00:42:00,
2013-05-04 19:52:00,76.0,32.0,29.88,NE,55,5.0,6.0,20,0.00,,,0.00,,2013-05-05 00:52:00,
2013-05-04 20:01:00,76.0,33.0,29.88,NE,38,4.0,4.0,21,0.00,,,0.00,,2013-05-05 01:01:00,
2013-05-04 20:11:00,74.0,33.0,29.89,NE,41,4.0,4.0,22,0.00,,,0.00,,2013-05-05 01:11:00,
2013-05-04 20:21:00,74.0,33.0,29.89,NE,41,4.0,4.0,22,0.00,,,0.00,,2013-05-05 01:21:00,
2013-05-04 20:32:00,72.0,33.0,29.90,NNE,17,5.0,5.0,24,0.00,,,0.00,,2013-05-05 01:32:00,
2013-05-04 20:42:00,72.0,33.0,29.90,NNE,17,5.0,5.0,24,0.00,,,0.00,,2013-05-05 01:42:00,
2013-05-04 20:52:00,70.0,34.0,29.91,ENE,66,5.0,5.0,27,0.00,,,0.00,,2013-05-05 01:52:00,
2013-05-04 21:02:00,68.0,34.0,29.92,ENE,62,4.0,4.0,28,0.00,,,0.00,,2013-05-05 02:02:00,
2013-05-04 21:11:00,68.0,34.0,29.92,ENE,62,4.0,4.0,28,0.00,,,0.00,,2013-05-05 02:11:00,
2013-05-04 21:21:00,67.0,35.0,29.93,NE,49,5.0,5.0,30,0.00,,,0.00,,2013-05-05 02:21:00,
2013-05-04 21:31:00,67.0,35.0,29.93,NE,52,4.0,5.0,31,0.00,,,0.00,,2013-05-05 02:31:00,
2013-05-04 21:42:00,67.0,35.0,29.93,NE,52,4.0,5.0,31,0.00,,,0.00,,2013-05-05 02:42:00,
2013-05-04 21:52:00,65.0,34.0,29.94,NE,49,5.0,6.0,32,0.00,,,0.00,,2013-05-05 02:52:00,
2013-05-04 22:01:00,66.0,35.0,29.95,NE,39,5.0,5.0,32,0.00,,,0.00,,2013-05-05 03:01:00,
2013-05-04 22:11:00,63.0,35.0,29.96,SE,127,2.0,3.0,35,0.00,,,0.00,,2013-05-05 03:11:00,
2013-05-04 22:21:00,63.0,35.0,29.96,SE,127,2.0,3.0,35,0.00,,,0.00,,2013-05-05 03:21:00,
2013-05-04 22:33:00,61.0,35.0,29.97,East,93,3.0,3.0,37,0.00,,,0.00,,2013-05-05 03:33:00,
2013-05-04 22:42:00,61.0,35.0,29.97,East,93,3.0,3.0,37,0.00,,,0.00,,2013-05-05 03:42:00,
2013-05-04 22:53:00,61.0,35.0,29.98,ESE,117,1.0,1.0,38,0.00,,,0.00,,2013-05-05 03:53:00,
2013-05-04 23:02:00,58.0,35.0,29.98,SE,127,0.0,0.0,42,0.00,,,0.00,,2013-05-05 04:02:00,
2013-05-04 23:12:00,58.0,35.0,29.98,SE,127,0.0,0.0,42,0.00,,,0.00,,2013-05-05 04:12:00,
2013-05-04 23:22:00,57.0,35.0,30.00,East,96,0.0,0.0,44,0.00,,,0.00,,2013-05-05 04:22:00,
2013-05-04 23:32:00,56.0,36.0,30.01,ENE,77,1.0,0.0,47,0.00,,,0.00,,2013-05-05 04:32:00,
2013-05-04 23:43:00,56.0,36.0,30.01,ENE,77,1.0,0.0,47,0.00,,,0.00,,2013-05-05 04:43:00,
2013-05-04 23:53:00,55.0,36.0,30.01,ENE,77,0.0,0.0,48,0.00,,,0.00,,2013-05-05 04:53:00,